createdAt,value
2023-04-26T00:00:09.013Z,24.77
2023-04-26T00:03:01.025Z,24.78
2023-04-26T00:05:30.056Z,24.66
2023-04-26T00:07:58.470Z,24.78
2023-04-26T00:10:27.217Z,24.95
2023-04-26T00:12:55.340Z,24.84
2023-04-26T00:15:23.890Z,24.63
2023-04-26T00:17:52.102Z,24.64
2023-04-26T00:20:22.003Z,24.49
2023-04-26T00:22:50.157Z,24.46
2023-04-26T00:25:18.703Z,24.41
2023-04-26T00:27:46.983Z,24.13
2023-04-26T00:30:16.270Z,24.08
2023-04-26T00:32:44.453Z,24.03
2023-04-26T00:35:12.912Z,23.80
2023-04-26T00:37:42.726Z,23.62
2023-04-26T00:40:12.510Z,23.90
2023-04-26T00:42:41.053Z,23.91
2023-04-26T00:45:10.163Z,24.00
2023-04-26T00:47:38.497Z,24.15
2023-04-26T00:50:08.680Z,24.33
2023-04-26T00:52:36.908Z,24.23
2023-04-26T00:55:07.906Z,23.95
2023-04-26T00:57:36.221Z,23.98
2023-04-26T01:00:05.306Z,24.04
2023-04-26T01:02:33.710Z,24.07
2023-04-26T01:05:02.338Z,23.60
2023-04-26T01:07:30.527Z,23.67
2023-04-26T01:09:59.702Z,23.69
2023-04-26T01:12:29.580Z,23.17
2023-04-26T01:14:58.407Z,23.32
2023-04-26T01:17:26.666Z,23.10
2023-04-26T01:19:55.428Z,23.24
2023-04-26T01:22:23.605Z,23.34
2023-04-26T01:24:56.489Z,23.12
2023-04-26T01:27:24.625Z,23.25
2023-04-26T01:29:53.134Z,23.25
2023-04-26T01:32:21.378Z,23.07
2023-04-26T01:34:49.785Z,23.02
2023-04-26T01:37:17.932Z,23.45
2023-04-26T01:39:46.625Z,23.55
2023-04-26T01:42:16.280Z,23.37
2023-04-26T01:44:44.814Z,23.72
2023-04-26T01:47:13.022Z,23.79
2023-04-26T01:49:41.703Z,23.92
2023-04-26T01:52:09.873Z,24.06
2023-04-26T01:54:38.548Z,23.99
2023-04-26T01:57:06.952Z,23.70
2023-04-26T01:59:36.726Z,23.94
2023-04-26T02:02:05.484Z,23.88
2023-04-26T02:04:34.117Z,23.91
2023-04-26T02:07:02.312Z,24.00
2023-04-26T02:09:30.880Z,24.01
2023-04-26T02:11:58.939Z,23.92
2023-04-26T02:14:27.459Z,24.38
2023-04-26T02:16:57.221Z,24.22
2023-04-26T02:19:26.003Z,24.10
2023-04-26T02:21:56.258Z,24.35
2023-04-26T02:24:24.872Z,24.52
2023-04-26T02:26:54.595Z,24.67
2023-04-26T02:29:40.007Z,24.77
2023-04-26T02:32:12.892Z,24.83
2023-04-26T02:34:41.776Z,25.24
2023-04-26T02:37:10.168Z,25.32
2023-04-26T02:39:38.655Z,25.10
2023-04-26T02:42:10.212Z,24.75
2023-04-26T02:44:39.705Z,25.49
2023-04-26T02:47:08.242Z,25.44
2023-04-26T02:49:38.184Z,25.00
2023-04-26T02:52:06.402Z,25.65
2023-04-26T02:54:34.894Z,25.49
2023-04-26T02:57:02.981Z,25.82
2023-04-26T02:59:31.578Z,25.81
2023-04-26T03:01:59.837Z,25.90
2023-04-26T03:04:28.944Z,25.83
2023-04-26T03:06:58.480Z,25.66
2023-04-26T03:09:26.977Z,26.00
2023-04-26T03:11:55.147Z,26.16
2023-04-26T03:14:23.659Z,26.03
2023-04-26T03:16:51.835Z,26.24
2023-04-26T03:19:21.325Z,26.10
2023-04-26T03:21:49.522Z,26.19
2023-04-26T03:24:19.358Z,26.09
2023-04-26T03:26:47.618Z,26.33
2023-04-26T03:29:16.317Z,26.40
2023-04-26T03:31:44.703Z,26.08
2023-04-26T03:34:13.302Z,26.25
2023-04-26T03:36:41.531Z,26.23
2023-04-26T03:39:10.372Z,26.37
2023-04-26T03:41:40.590Z,26.35
2023-04-26T03:44:09.107Z,26.25
2023-04-26T03:46:37.384Z,26.35
2023-04-26T03:49:05.755Z,26.35
2023-04-26T03:51:34.030Z,26.33
2023-04-26T03:54:02.560Z,26.54
2023-04-26T03:56:31.089Z,26.29
2023-04-26T03:59:01.039Z,26.23
2023-04-26T04:01:29.211Z,26.23
2023-04-26T04:03:57.810Z,26.23
2023-04-26T04:06:26.598Z,25.93
2023-04-26T04:08:55.504Z,25.63
2023-04-26T04:11:23.862Z,25.37
2023-04-26T04:13:52.322Z,25.26
2023-04-26T04:16:22.026Z,24.90
2023-04-26T04:18:50.896Z,24.70
2023-04-26T04:21:19.345Z,24.28
2023-04-26T04:23:48.232Z,23.66
2023-04-26T04:26:17.564Z,23.19
2023-04-26T04:28:47.302Z,22.71
2023-04-26T04:31:15.967Z,22.59
2023-04-26T04:33:45.901Z,21.80
2023-04-26T04:36:16.938Z,21.46
2023-04-26T04:38:45.317Z,20.08
2023-04-26T04:41:13.451Z,20.69
2023-04-26T04:43:41.882Z,20.32
2023-04-26T04:46:12.733Z,19.77
2023-04-26T04:48:41.645Z,18.35
2023-04-26T04:51:12.091Z,18.94
2023-04-26T04:53:40.752Z,18.78
2023-04-26T04:56:09.316Z,18.14
2023-04-26T04:58:38.135Z,17.79
2023-04-26T05:01:07.188Z,17.72
2023-04-26T05:03:35.844Z,17.46
2023-04-26T05:06:04.077Z,17.07
2023-04-26T05:08:33.869Z,16.46
2023-04-26T05:11:03.109Z,16.16
2023-04-26T05:13:31.592Z,15.35
2023-04-26T05:15:59.812Z,15.37
2023-04-26T05:18:28.361Z,15.36
2023-04-26T05:20:56.631Z,14.61
2023-04-26T05:23:25.091Z,14.65
2023-04-26T05:25:54.571Z,13.91
2023-04-26T05:28:23.184Z,14.83
2023-04-26T05:30:51.417Z,14.24
2023-04-26T05:33:19.962Z,13.65
2023-04-26T05:35:48.178Z,12.77
2023-04-26T05:38:16.749Z,12.75
2023-04-26T05:40:44.981Z,11.76
2023-04-26T05:43:14.759Z,11.13
2023-04-26T05:45:51.922Z,11.07
2023-04-26T05:48:21.885Z,11.12
2023-04-26T05:50:50.187Z,10.43
2023-04-26T05:53:19.254Z,10.89
2023-04-26T05:55:47.522Z,10.27
2023-04-26T05:58:17.459Z,11.08
2023-04-26T06:00:45.614Z,10.10
2023-04-26T06:03:14.350Z,9.79
2023-04-26T06:05:42.799Z,9.17
2023-04-26T06:08:11.352Z,8.95
2023-04-26T06:10:39.469Z,9.12
2023-04-26T06:13:07.998Z,8.15
2023-04-26T06:15:37.633Z,7.96
2023-04-26T06:18:06.530Z,7.37
2023-04-26T06:20:34.905Z,7.91
2023-04-26T06:23:03.365Z,7.55
2023-04-26T06:25:32.165Z,7.57
2023-04-26T06:28:00.837Z,7.94
2023-04-26T06:30:29.121Z,7.53
2023-04-26T06:33:00.330Z,6.96
2023-04-26T06:35:28.749Z,6.87
2023-04-26T06:37:57.294Z,6.38
2023-04-26T06:40:25.512Z,6.63
2023-04-26T06:42:54.512Z,6.68
2023-04-26T06:45:22.842Z,6.33
2023-04-26T06:47:52.774Z,6.76
2023-04-26T06:50:22.736Z,5.89
2023-04-26T06:52:51.598Z,6.42
2023-04-26T06:55:20.131Z,5.89
2023-04-26T06:57:48.799Z,6.07
2023-04-26T07:00:18.025Z,7.10
2023-04-26T07:02:47.137Z,8.23
2023-04-26T07:05:16.280Z,9.12
2023-04-26T07:07:46.240Z,10.30
2023-04-26T07:10:14.853Z,10.97
2023-04-26T07:12:43.409Z,9.65
2023-04-26T07:15:12.553Z,9.04
2023-04-26T07:17:41.245Z,8.66
2023-04-26T07:20:10.577Z,8.43
2023-04-26T07:22:39.615Z,8.71
2023-04-26T07:25:09.807Z,8.55
2023-04-26T07:27:38.620Z,8.64
2023-04-26T07:30:08.198Z,9.39
2023-04-26T07:32:37.030Z,10.67
2023-04-26T07:35:08.511Z,11.31
2023-04-26T07:37:37.079Z,12.32
2023-04-26T07:40:08.381Z,12.46
2023-04-26T07:42:38.402Z,12.28
2023-04-26T07:45:08.593Z,11.84
2023-04-26T07:47:37.340Z,11.18
2023-04-26T07:50:06.591Z,11.67
2023-04-26T07:52:36.135Z,11.63
2023-04-26T07:55:04.638Z,10.25
2023-04-26T07:57:33.209Z,10.30
2023-04-26T08:00:03.020Z,10.39
2023-04-26T08:02:43.301Z,10.44
2023-04-26T08:05:13.376Z,11.42
2023-04-26T08:07:42.418Z,12.35
2023-04-26T08:10:11.824Z,10.88
2023-04-26T08:12:40.827Z,9.27
2023-04-26T08:15:12.141Z,7.81
2023-04-26T08:17:41.697Z,8.58
2023-04-26T08:20:10.928Z,7.79
2023-04-26T08:22:39.480Z,6.87
2023-04-26T08:25:08.297Z,7.32
2023-04-26T08:27:37.540Z,8.65
2023-04-26T08:30:06.936Z,9.30
2023-04-26T08:32:37.104Z,7.72
2023-04-26T08:35:06.046Z,6.04
2023-04-26T08:37:35.874Z,4.80
2023-04-26T08:40:04.868Z,4.71
2023-04-26T08:42:34.712Z,5.82
2023-04-26T08:45:05.058Z,6.20
2023-04-26T08:47:42.550Z,5.17
2023-04-26T08:50:14.672Z,5.27
2023-04-26T08:52:46.662Z,6.12
2023-04-26T08:55:16.548Z,7.06
2023-04-26T08:57:45.569Z,7.61
2023-04-26T09:00:16.054Z,8.45
2023-04-26T09:02:48.647Z,8.73
2023-04-26T09:05:17.229Z,8.76
2023-04-26T09:07:47.018Z,7.75
2023-04-26T09:10:21.470Z,7.29
2023-04-26T09:12:53.723Z,7.48
2023-04-26T09:15:22.919Z,8.12
2023-04-26T09:17:53.321Z,8.92
2023-04-26T09:20:24.169Z,9.15
2023-04-26T09:22:54.296Z,7.66
2023-04-26T09:25:29.444Z,5.07
2023-04-26T09:27:58.906Z,3.54
2023-04-26T09:30:27.949Z,2.89
2023-04-26T09:32:59.813Z,2.53
2023-04-26T09:35:30.904Z,3.44
2023-04-26T09:38:07.891Z,5.49
2023-04-26T09:40:41.135Z,6.50
2023-04-26T09:43:11.742Z,7.54
2023-04-26T09:45:49.199Z,8.64
2023-04-26T09:48:26.188Z,6.08
2023-04-26T09:50:55.714Z,4.10
2023-04-26T09:53:28.962Z,2.74
2023-04-26T09:55:58.274Z,1.78
2023-04-26T09:58:27.155Z,1.06
2023-04-26T10:00:56.052Z,0.95
2023-04-26T10:03:27.356Z,1.90
2023-04-26T10:05:56.057Z,2.74
2023-04-26T10:08:24.876Z,4.26
2023-04-26T10:10:53.447Z,5.82
2023-04-26T10:13:22.723Z,5.55
2023-04-26T10:15:51.458Z,3.95
2023-04-26T10:18:20.569Z,2.82
2023-04-26T10:20:53.216Z,3.24
2023-04-26T10:23:25.871Z,5.03
2023-04-26T10:25:54.760Z,5.76
2023-04-26T10:29:02.154Z,6.27
2023-04-26T10:32:05.348Z,6.88
2023-04-26T10:34:36.401Z,5.30
2023-04-26T10:37:12.798Z,3.62
2023-04-26T10:39:42.228Z,2.09
2023-04-26T10:42:30.466Z,1.27
2023-04-26T10:44:59.906Z,2.16
2023-04-26T10:47:30.844Z,3.48
2023-04-26T10:50:07.457Z,4.88
2023-04-26T10:52:38.382Z,6.14
2023-04-26T10:55:08.052Z,7.27
2023-04-26T10:57:52.769Z,8.41
2023-04-26T11:00:32.783Z,9.43
2023-04-26T11:03:06.662Z,10.12
2023-04-26T11:05:37.733Z,10.17
2023-04-26T11:08:09.619Z,10.86
2023-04-26T11:10:41.711Z,10.86
2023-04-26T11:13:10.242Z,9.65
2023-04-26T11:15:38.922Z,7.62
2023-04-26T11:18:07.725Z,5.79
2023-04-26T11:20:36.595Z,4.26
2023-04-26T11:23:05.118Z,3.69
2023-04-26T11:25:35.232Z,2.61
2023-04-26T11:28:04.234Z,2.74
2023-04-26T11:30:33.520Z,3.31
2023-04-26T11:33:02.060Z,5.11
2023-04-26T11:35:31.049Z,6.52
2023-04-26T11:38:00.380Z,7.17
2023-04-26T11:40:30.298Z,6.95
2023-04-26T11:43:03.085Z,6.87
2023-04-26T11:45:33.846Z,8.42
2023-04-26T11:48:03.814Z,8.51
2023-04-26T11:50:33.587Z,8.83
2023-04-26T11:53:03.419Z,9.67
2023-04-26T11:55:34.305Z,10.14
2023-04-26T11:58:11.862Z,9.87
2023-04-26T12:00:59.009Z,9.44
2023-04-26T12:03:32.562Z,9.71
2023-04-26T12:06:01.521Z,10.24
2023-04-26T12:08:30.030Z,9.90
2023-04-26T12:11:01.265Z,9.57
2023-04-26T12:13:33.051Z,9.55
2023-04-26T12:16:02.639Z,9.99
2023-04-26T12:18:33.846Z,9.64
2023-04-26T12:21:02.613Z,9.99
2023-04-26T12:23:39.430Z,9.56
2023-04-26T12:26:11.186Z,10.16
2023-04-26T12:28:41.432Z,9.65
2023-04-26T12:31:10.314Z,9.97
2023-04-26T12:33:38.772Z,10.35
2023-04-26T12:36:11.417Z,11.20
2023-04-26T12:38:40.494Z,11.17
2023-04-26T12:41:09.395Z,12.28
2023-04-26T12:43:37.809Z,12.74
2023-04-26T12:46:07.733Z,11.93
2023-04-26T12:48:36.334Z,11.56
2023-04-26T12:51:08.060Z,10.96
2023-04-26T12:53:36.908Z,10.93
2023-04-26T12:56:06.098Z,11.19
2023-04-26T12:58:34.617Z,11.40
2023-04-26T13:01:03.296Z,11.26
2023-04-26T13:03:33.255Z,11.73
2023-04-26T13:06:02.290Z,11.65
2023-04-26T13:08:32.834Z,11.34
2023-04-26T13:11:01.445Z,11.25
2023-04-26T13:13:42.270Z,10.44
2023-04-26T13:16:13.296Z,10.96
2023-04-26T13:18:43.336Z,11.09
2023-04-26T13:21:11.898Z,12.28
2023-04-26T13:23:40.370Z,12.13
2023-04-26T13:26:09.075Z,12.04
2023-04-26T13:28:37.670Z,12.19
2023-04-26T13:31:06.584Z,12.15
2023-04-26T13:33:34.946Z,12.33
2023-04-26T13:36:05.245Z,11.94
2023-04-26T13:38:33.589Z,11.81
2023-04-26T13:41:02.555Z,12.23
2023-04-26T13:43:30.880Z,11.64
2023-04-26T13:46:01.554Z,11.29
2023-04-26T13:48:29.845Z,11.45
2023-04-26T13:50:59.033Z,11.26
2023-04-26T13:53:28.787Z,10.87
2023-04-26T13:55:57.770Z,11.83
2023-04-26T13:58:26.336Z,12.52
2023-04-26T14:00:54.913Z,13.33
2023-04-26T14:03:23.439Z,13.69
2023-04-26T14:05:52.072Z,13.45
2023-04-26T14:08:20.502Z,13.50
2023-04-26T14:10:50.380Z,13.18
2023-04-26T14:13:18.686Z,13.20
2023-04-26T14:15:47.538Z,12.98
2023-04-26T14:18:16.070Z,12.67
2023-04-26T14:20:45.059Z,12.55
2023-04-26T14:23:13.422Z,12.21
2023-04-26T14:25:42.537Z,11.91
2023-04-26T14:28:12.679Z,12.00
2023-04-26T14:30:41.271Z,12.17
2023-04-26T14:33:09.568Z,12.15
2023-04-26T14:35:38.236Z,12.51
2023-04-26T14:38:06.619Z,12.69
2023-04-26T14:40:35.380Z,12.85
2023-04-26T14:43:03.783Z,12.96
2023-04-26T14:45:43.973Z,12.93
2023-04-26T14:48:13.113Z,12.91
2023-04-26T14:50:41.889Z,12.66
2023-04-26T14:53:11.223Z,12.93
2023-04-26T14:55:39.752Z,12.90
2023-04-26T14:58:08.677Z,13.55
2023-04-26T15:00:39.157Z,13.15
2023-04-26T15:03:07.849Z,13.18
2023-04-26T15:05:36.546Z,12.76
2023-04-26T15:08:05.281Z,12.92
2023-04-26T15:10:34.055Z,12.44
2023-04-26T15:13:02.505Z,11.94
2023-04-26T15:15:31.320Z,12.02
2023-04-26T15:18:01.970Z,12.27
2023-04-26T15:20:30.879Z,12.00
2023-04-26T15:22:59.132Z,12.31
2023-04-26T15:25:27.768Z,11.49
2023-04-26T15:27:57.523Z,11.38
2023-04-26T15:30:25.995Z,11.51
2023-04-26T15:32:54.307Z,12.07
2023-04-26T15:35:25.219Z,12.30
2023-04-26T15:37:54.180Z,12.61
2023-04-26T15:40:22.995Z,12.74
2023-04-26T15:42:52.036Z,12.78
2023-04-26T15:45:20.657Z,13.04
2023-04-26T15:47:49.127Z,13.14
2023-04-26T15:50:17.871Z,13.37
2023-04-26T15:52:47.668Z,13.07
2023-04-26T15:55:16.576Z,13.67
2023-04-26T15:57:48.386Z,13.16
2023-04-26T16:00:19.825Z,13.37
2023-04-26T16:02:48.346Z,13.22
2023-04-26T16:05:17.527Z,13.74
2023-04-26T16:07:47.382Z,13.70
2023-04-26T16:10:17.315Z,13.91
2023-04-26T16:12:45.610Z,14.27
2023-04-26T16:15:14.569Z,14.21
2023-04-26T16:17:42.916Z,14.04
2023-04-26T16:20:12.291Z,13.76
2023-04-26T16:22:40.816Z,14.42
2023-04-26T16:25:11.202Z,14.90
2023-04-26T16:27:39.440Z,15.29
2023-04-26T16:30:09.897Z,15.51
2023-04-26T16:32:38.311Z,16.04
2023-04-26T16:35:09.076Z,15.83
2023-04-26T16:37:39.380Z,16.10
2023-04-26T16:40:11.710Z,16.42
2023-04-26T16:42:43.364Z,16.27
2023-04-26T16:45:16.045Z,16.30
2023-04-26T16:47:45.063Z,16.10
2023-04-26T16:50:13.865Z,16.08
2023-04-26T16:52:42.709Z,15.88
2023-04-26T16:55:13.042Z,16.08
2023-04-26T16:57:42.130Z,16.43
2023-04-26T17:00:12.252Z,16.45
2023-04-26T17:02:42.111Z,16.20
2023-04-26T17:05:11.439Z,16.08
2023-04-26T17:07:39.894Z,15.89
2023-04-26T17:10:09.488Z,15.84
2023-04-26T17:12:39.346Z,15.93
2023-04-26T17:15:08.695Z,16.56
2023-04-26T17:17:37.539Z,16.51
2023-04-26T17:20:10.122Z,15.95
2023-04-26T17:22:39.600Z,15.57
2023-04-26T17:25:09.140Z,15.86
2023-04-26T17:27:38.876Z,15.65
2023-04-26T17:30:08.790Z,15.61
2023-04-26T17:32:37.323Z,15.71
2023-04-26T17:35:07.691Z,15.65
2023-04-26T17:37:36.086Z,15.77
2023-04-26T17:40:07.782Z,15.98
2023-04-26T17:42:36.111Z,15.45
2023-04-26T17:45:07.553Z,16.06
2023-04-26T17:47:35.823Z,16.68
2023-04-26T17:50:04.529Z,16.83
2023-04-26T17:52:32.832Z,17.00
2023-04-26T17:55:01.684Z,16.93
2023-04-26T17:57:30.192Z,17.13
2023-04-26T17:59:58.849Z,17.15
2023-04-26T18:02:28.584Z,16.99
2023-04-26T18:04:57.538Z,17.35
2023-04-26T18:07:26.216Z,17.80
2023-04-26T18:09:54.871Z,17.62
2023-04-26T18:12:23.230Z,17.95
2023-04-26T18:14:52.382Z,18.23
2023-04-26T18:17:20.937Z,18.27
2023-04-26T18:19:50.979Z,17.88
2023-04-26T18:22:19.431Z,18.53
2023-04-26T18:24:48.234Z,18.80
2023-04-26T18:27:16.725Z,18.48
2023-04-26T18:29:45.288Z,18.19
2023-04-26T18:32:13.751Z,18.29
2023-04-26T18:34:42.408Z,18.06
2023-04-26T18:37:12.045Z,17.93
2023-04-26T18:39:40.628Z,18.55
2023-04-26T18:42:08.961Z,18.37
2023-04-26T18:44:37.717Z,18.44
2023-04-26T18:47:06.315Z,18.68
2023-04-26T18:49:35.077Z,18.53
2023-04-26T18:52:03.935Z,18.85
2023-04-26T18:54:34.902Z,18.70
2023-04-26T18:57:03.645Z,18.58
2023-04-26T18:59:32.634Z,18.80
2023-04-26T19:02:01.746Z,18.53
2023-04-26T19:04:30.766Z,18.98
2023-04-26T19:07:00.865Z,19.08
2023-04-26T19:09:39.681Z,19.23
2023-04-26T19:12:16.833Z,19.29
2023-04-26T19:14:45.588Z,19.56
2023-04-26T19:17:13.906Z,19.29
2023-04-26T19:19:42.533Z,19.52
2023-04-26T19:22:10.983Z,19.79
2023-04-26T19:24:39.563Z,19.84
2023-04-26T19:27:07.842Z,19.86
2023-04-26T19:29:37.911Z,19.72
2023-04-26T19:32:07.201Z,19.92
2023-04-26T19:34:38.931Z,19.90
2023-04-26T19:37:07.304Z,19.76
2023-04-26T19:39:36.020Z,19.91
2023-04-26T19:42:04.885Z,19.68
2023-04-26T19:44:33.576Z,19.96
2023-04-26T19:47:03.505Z,19.66
2023-04-26T19:49:32.363Z,19.98
2023-04-26T19:52:02.028Z,19.87
2023-04-26T19:54:30.678Z,20.18
2023-04-26T19:56:59.113Z,20.07
2023-04-26T19:59:27.801Z,19.90
2023-04-26T20:01:56.199Z,19.81
2023-04-26T20:04:26.454Z,19.61
2023-04-26T20:06:54.978Z,20.18
2023-04-26T20:09:23.510Z,19.76
2023-04-26T20:11:52.025Z,20.20
2023-04-26T20:14:20.693Z,20.21
2023-04-26T20:16:49.200Z,20.27
2023-04-26T20:19:17.830Z,20.23
2023-04-26T20:21:47.626Z,20.09
2023-04-26T20:24:16.590Z,20.32
2023-04-26T20:26:45.031Z,20.04
2023-04-26T20:29:13.672Z,20.10
2023-04-26T20:31:42.199Z,19.89
2023-04-26T20:34:10.865Z,20.13
2023-04-26T20:36:39.365Z,19.73
2023-04-26T20:39:10.798Z,19.67
2023-04-26T20:41:39.273Z,19.84
2023-04-26T20:44:07.956Z,19.75
2023-04-26T20:46:36.374Z,20.02
2023-04-26T20:49:06.881Z,19.77
2023-04-26T20:51:35.313Z,19.90
2023-04-26T20:54:03.950Z,20.07
2023-04-26T20:56:33.630Z,19.96
2023-04-26T20:59:02.195Z,20.01
2023-04-26T21:01:30.734Z,20.32
2023-04-26T21:03:59.351Z,20.39
2023-04-26T21:06:28.713Z,20.55
2023-04-26T21:08:57.488Z,20.40
2023-04-26T21:11:26.005Z,20.78
2023-04-26T21:13:56.149Z,20.49
2023-04-26T21:16:24.550Z,21.11
2023-04-26T21:18:53.045Z,20.90
2023-04-26T21:21:21.413Z,21.19
2023-04-26T21:23:50.024Z,21.12
2023-04-26T21:26:18.585Z,21.63
2023-04-26T21:28:47.145Z,21.71
2023-04-26T21:31:16.969Z,21.69
2023-04-26T21:33:45.641Z,21.66
2023-04-26T21:36:13.832Z,21.77
2023-04-26T21:38:42.452Z,21.92
2023-04-26T21:41:10.733Z,21.97
2023-04-26T21:43:39.338Z,21.88
2023-04-26T21:46:08.196Z,21.92
2023-04-26T21:48:38.934Z,21.90
2023-04-26T21:51:07.937Z,22.25
2023-04-26T21:53:36.518Z,22.12
2023-04-26T21:56:06.319Z,22.66
2023-04-26T21:58:34.947Z,22.57
2023-04-26T22:01:09.606Z,21.96
2023-04-26T22:03:39.975Z,22.29
2023-04-26T22:06:09.661Z,22.41
2023-04-26T22:08:38.735Z,22.39
2023-04-26T22:11:07.025Z,22.28
2023-04-26T22:13:35.898Z,22.37
2023-04-26T22:16:04.538Z,22.31
2023-04-26T22:18:33.360Z,22.34
2023-04-26T22:21:03.020Z,22.38
2023-04-26T22:23:32.234Z,22.41
2023-04-26T22:26:00.784Z,22.43
2023-04-26T22:28:29.270Z,22.24
2023-04-26T22:30:57.751Z,22.41
2023-04-26T22:33:26.336Z,22.39
2023-04-26T22:35:58.030Z,22.37
2023-04-26T22:38:28.051Z,22.52
2023-04-26T22:40:56.356Z,22.54
2023-04-26T22:43:24.937Z,22.55
2023-04-26T22:45:53.246Z,22.69
2023-04-26T22:48:21.851Z,22.48
2023-04-26T22:50:50.747Z,22.41
2023-04-26T22:53:19.276Z,22.59
2023-04-26T22:55:51.857Z,22.21
2023-04-26T22:58:20.328Z,22.53
2023-04-26T23:00:48.485Z,22.43
2023-04-26T23:03:17.171Z,22.55
2023-04-26T23:05:45.705Z,22.55
2023-04-26T23:08:14.151Z,22.43
2023-04-26T23:10:42.336Z,22.54
2023-04-26T23:13:12.229Z,22.08
2023-04-26T23:15:40.477Z,22.38
2023-04-26T23:18:09.646Z,22.24
2023-04-26T23:20:38.092Z,22.32
2023-04-26T23:23:06.745Z,22.43
2023-04-26T23:25:35.090Z,22.26
2023-04-26T23:28:03.655Z,22.35
2023-04-26T23:30:33.260Z,22.11
2023-04-26T23:33:01.905Z,22.31
2023-04-26T23:35:30.238Z,22.52
2023-04-26T23:37:58.774Z,22.47
2023-04-26T23:40:27.155Z,22.18
2023-04-26T23:42:55.867Z,22.51
2023-04-26T23:45:24.159Z,22.35
2023-04-26T23:47:54.405Z,22.50
2023-04-26T23:50:23.004Z,22.46
2023-04-26T23:52:51.542Z,22.58
2023-04-26T23:55:19.972Z,22.64
2023-04-26T23:57:48.585Z,22.82
